createdAt,value
2019-03-06T00:01:23.328Z,100855.05
2019-03-06T00:03:58.364Z,100858.91
2019-03-06T00:06:33.219Z,100860.21
2019-03-06T00:09:09.474Z,100860.83
2019-03-06T00:11:44.421Z,100859.80
2019-03-06T00:14:19.318Z,100856.80
2019-03-06T00:16:54.175Z,100850.37
2019-03-06T00:19:29.086Z,100844.97
2019-03-06T00:22:03.916Z,100843.67
2019-03-06T00:24:38.887Z,100848.38
2019-03-06T00:27:15.381Z,100846.03
2019-03-06T00:29:51.392Z,100854.14
2019-03-06T00:32:26.247Z,100848.63
2019-03-06T00:35:03.557Z,100844.64
2019-03-06T00:37:38.399Z,100845.94
2019-03-06T00:40:31.018Z,100843.95
2019-03-06T00:43:05.838Z,100848.95
2019-03-06T00:45:40.630Z,100842.64
2019-03-06T00:48:15.479Z,100854.08
2019-03-06T00:50:50.458Z,100855.38
2019-03-06T00:53:25.211Z,100849.61
2019-03-06T00:55:59.969Z,100853.20
2019-03-06T00:58:34.938Z,100848.31
2019-03-06T01:01:09.910Z,100841.55
2019-03-06T01:03:44.645Z,100837.84
2019-03-06T01:06:19.543Z,100833.94
2019-03-06T01:08:54.579Z,100832.52
2019-03-06T01:11:29.429Z,100834.53
2019-03-06T01:14:04.279Z,100834.34
2019-03-06T01:16:39.537Z,100837.13
2019-03-06T01:19:14.384Z,100829.73
2019-03-06T01:21:49.179Z,100829.22
2019-03-06T01:24:24.073Z,100826.42
2019-03-06T01:26:59.025Z,100826.14
2019-03-06T01:29:33.932Z,100831.15
2019-03-06T01:32:08.804Z,100835.31
2019-03-06T01:34:59.913Z,100828.30
2019-03-06T01:37:45.737Z,100818.72
2019-03-06T01:40:34.221Z,100815.02
2019-03-06T01:43:13.505Z,100810.80
2019-03-06T01:45:48.291Z,100803.13
2019-03-06T01:48:23.433Z,100803.80
2019-03-06T01:50:58.398Z,100795.80
2019-03-06T01:53:34.149Z,100793.58
2019-03-06T01:56:08.967Z,100790.77
2019-03-06T01:58:44.965Z,100798.30
2019-03-06T02:01:19.817Z,100795.33
2019-03-06T02:03:54.718Z,100798.05
2019-03-06T02:06:29.563Z,100791.48
2019-03-06T02:09:05.681Z,100792.78
2019-03-06T02:11:41.603Z,100788.97
2019-03-06T02:14:16.927Z,100784.20
2019-03-06T02:16:51.783Z,100778.30
2019-03-06T02:19:27.994Z,100778.22
2019-03-06T02:22:02.849Z,100767.16
2019-03-06T02:24:38.159Z,100770.03
2019-03-06T02:27:13.013Z,100760.60
2019-03-06T02:29:48.157Z,100760.58
2019-03-06T02:32:23.240Z,100757.84
2019-03-06T02:34:58.021Z,100755.09
2019-03-06T02:37:33.105Z,100738.57
2019-03-06T02:40:08.223Z,100737.58
2019-03-06T02:42:45.019Z,100736.04
2019-03-06T02:45:21.823Z,100728.31
2019-03-06T02:47:58.034Z,100733.23
2019-03-06T02:50:33.199Z,100728.65
2019-03-06T02:53:09.948Z,100717.59
2019-03-06T02:55:44.884Z,100711.27
2019-03-06T02:58:26.053Z,100711.16
2019-03-06T03:01:38.031Z,100702.45
2019-03-06T03:04:30.315Z,100698.20
2019-03-06T03:07:08.696Z,100696.45
2019-03-06T03:09:44.140Z,100694.05
2019-03-06T03:12:20.534Z,100689.16
2019-03-06T03:14:55.374Z,100698.48
2019-03-06T03:17:31.269Z,100699.80
2019-03-06T03:20:07.055Z,100684.40
2019-03-06T03:22:42.008Z,100690.28
2019-03-06T03:26:47.360Z,100686.59
2019-03-06T03:29:24.835Z,100687.73
2019-03-06T03:31:59.708Z,100683.06
2019-03-06T03:34:34.681Z,100671.28
2019-03-06T03:37:16.166Z,100657.84
2019-03-06T03:39:51.607Z,100667.62
2019-03-06T03:42:26.513Z,100654.78
2019-03-06T03:45:01.581Z,100658.41
2019-03-06T03:47:36.941Z,100663.80
2019-03-06T03:50:11.952Z,100666.68
2019-03-06T03:52:47.103Z,100671.10
2019-03-06T03:55:22.113Z,100663.44
2019-03-06T03:57:57.541Z,100659.10
2019-03-06T04:00:32.507Z,100659.73
2019-03-06T04:03:07.401Z,100655.19
2019-03-06T04:05:42.574Z,100652.36
2019-03-06T04:08:17.455Z,100651.64
2019-03-06T04:10:52.318Z,100645.34
2019-03-06T04:13:29.650Z,100643.37
2019-03-06T04:16:06.944Z,100644.83
2019-03-06T04:18:44.343Z,100638.26
2019-03-06T04:21:20.336Z,100637.07
2019-03-06T04:23:58.993Z,100646.13
2019-03-06T04:26:34.746Z,100644.53
2019-03-06T04:29:09.789Z,100637.59
2019-03-06T04:31:44.667Z,100645.98
2019-03-06T04:34:19.525Z,100646.08
2019-03-06T04:36:54.389Z,100644.69
2019-03-06T04:39:35.281Z,100643.39
2019-03-06T04:42:10.137Z,100644.53
2019-03-06T04:44:44.932Z,100648.75
2019-03-06T04:47:19.838Z,100645.84
2019-03-06T04:49:54.619Z,100643.81
2019-03-06T04:52:29.361Z,100642.66
2019-03-06T04:55:04.663Z,100646.36
2019-03-06T04:57:39.519Z,100641.97
2019-03-06T05:00:15.779Z,100640.05
2019-03-06T05:02:51.488Z,100629.84
2019-03-06T05:05:26.419Z,100627.55
2019-03-06T05:08:01.284Z,100618.64
2019-03-06T05:10:36.099Z,100620.22
2019-03-06T05:13:11.154Z,100619.64
2019-03-06T05:15:45.973Z,100614.30
2019-03-06T05:18:54.651Z,100613.64
2019-03-06T05:21:29.461Z,100603.95
2019-03-06T05:24:07.283Z,100603.59
2019-03-06T05:26:42.558Z,100598.17
2019-03-06T05:29:28.959Z,100598.59
2019-03-06T05:32:32.502Z,100591.86
2019-03-06T05:36:17.949Z,100586.08
2019-03-06T05:39:04.393Z,100576.55
2019-03-06T05:41:43.197Z,100577.62
2019-03-06T05:44:17.755Z,100567.86
2019-03-06T05:46:52.646Z,100567.84
2019-03-06T05:49:27.415Z,100564.31
2019-03-06T05:52:02.703Z,100564.59
2019-03-06T05:54:37.608Z,100563.56
2019-03-06T05:57:14.751Z,100566.38
2019-03-06T05:59:49.646Z,100562.44
2019-03-06T06:02:24.613Z,100559.16
2019-03-06T06:04:59.667Z,100561.48
2019-03-06T06:07:34.705Z,100557.12
2019-03-06T06:10:11.286Z,100550.05
2019-03-06T06:12:50.481Z,100553.66
2019-03-06T06:15:26.111Z,100548.45
2019-03-06T06:18:02.549Z,100541.78
2019-03-06T06:20:37.340Z,100543.16
2019-03-06T06:23:31.119Z,100541.20
2019-03-06T06:26:09.012Z,100531.68
2019-03-06T06:28:45.479Z,100523.48
2019-03-06T06:31:20.367Z,100527.61
2019-03-06T06:33:55.267Z,100517.47
2019-03-06T06:36:30.991Z,100510.59
2019-03-06T06:39:06.952Z,100504.70
2019-03-06T06:41:41.835Z,100494.47
2019-03-06T06:44:16.609Z,100492.81
2019-03-06T06:46:51.498Z,100497.16
2019-03-06T06:49:27.263Z,100480.78
2019-03-06T06:53:11.064Z,100477.05
2019-03-06T06:56:49.907Z,100465.19
2019-03-06T07:00:07.418Z,100459.06
2019-03-06T07:03:37.486Z,100451.93
2019-03-06T07:06:37.089Z,100451.31
2019-03-06T07:09:29.365Z,100439.53
2019-03-06T07:12:15.891Z,100459.09
2019-03-06T07:15:08.136Z,100471.03
2019-03-06T07:18:00.743Z,100469.73
2019-03-06T07:20:42.920Z,100467.42
2019-03-06T07:23:54.858Z,100459.05
2019-03-06T07:26:49.147Z,100458.17
2019-03-06T07:29:46.088Z,100446.73
2019-03-06T07:32:39.828Z,100446.55
2019-03-06T07:36:19.474Z,100440.66
2019-03-06T07:38:58.222Z,100439.92
2019-03-06T07:41:51.086Z,100437.53
2019-03-06T07:44:50.529Z,100434.18
2019-03-06T07:47:44.046Z,100432.98
2019-03-06T07:50:36.305Z,100421.02
2019-03-06T07:53:55.427Z,100415.27
2019-03-06T07:56:36.768Z,100412.78
2019-03-06T07:59:12.248Z,100402.27
2019-03-06T08:01:57.544Z,100406.28
2019-03-06T08:04:32.534Z,100397.25
2019-03-06T08:07:14.584Z,100393.16
2019-03-06T08:09:49.448Z,100384.30
2019-03-06T08:12:36.626Z,100387.48
2019-03-06T08:15:38.723Z,100386.63
2019-03-06T08:18:35.616Z,100366.16
2019-03-06T08:21:18.056Z,100367.19
2019-03-06T08:24:05.273Z,100372.97
2019-03-06T08:26:40.132Z,100374.73
2019-03-06T08:29:14.974Z,100381.09
2019-03-06T08:32:18.376Z,100376.62
2019-03-06T08:34:53.258Z,100374.05
2019-03-06T08:37:28.131Z,100368.63
2019-03-06T08:40:03.036Z,100366.95
2019-03-06T08:42:37.870Z,100368.45
2019-03-06T08:45:14.504Z,100365.25
2019-03-06T08:48:14.200Z,100361.67
2019-03-06T08:50:54.602Z,100350.98
2019-03-06T08:53:50.466Z,100344.25
2019-03-06T08:56:37.552Z,100335.73
2019-03-06T08:59:31.780Z,100340.05
2019-03-06T09:02:28.652Z,100339.77
2019-03-06T09:05:30.895Z,100328.08
2019-03-06T09:08:27.726Z,100326.92
2019-03-06T09:11:31.528Z,100320.45
2019-03-06T09:14:43.440Z,100307.84
2019-03-06T09:17:26.708Z,100312.16
2019-03-06T09:20:18.847Z,100308.35
2019-03-06T09:23:11.265Z,100303.91
2019-03-06T09:25:56.761Z,100286.64
2019-03-06T09:29:00.797Z,100274.25
2019-03-06T09:31:39.828Z,100268.11
2019-03-06T09:34:21.298Z,100260.39
2019-03-06T09:37:08.969Z,100252.40
2019-03-06T09:40:02.952Z,100255.25
2019-03-06T09:42:53.068Z,100244.45
2019-03-06T09:45:46.324Z,100261.47
2019-03-06T09:48:40.064Z,100263.55
2019-03-06T09:51:24.687Z,100252.45
2019-03-06T09:54:18.433Z,100248.77
2019-03-06T09:57:11.147Z,100243.08
2019-03-06T09:59:54.185Z,100223.87
2019-03-06T10:02:45.658Z,100221.09
2019-03-06T10:05:25.104Z,100214.06
2019-03-06T10:08:12.592Z,100215.38
2019-03-06T10:10:57.823Z,100208.88
2019-03-06T10:13:42.240Z,100194.56
2019-03-06T10:16:28.750Z,100191.73
2019-03-06T10:19:25.673Z,100167.55
2019-03-06T10:22:00.528Z,100153.41
2019-03-06T10:24:35.470Z,100157.84
2019-03-06T10:27:10.400Z,100175.13
2019-03-06T10:29:45.230Z,100163.36
2019-03-06T10:32:20.957Z,100171.80
2019-03-06T10:34:55.960Z,100159.50
2019-03-06T10:37:30.904Z,100146.70
2019-03-06T10:40:06.730Z,100141.70
2019-03-06T10:42:41.663Z,100131.50
2019-03-06T10:45:17.747Z,100124.44
2019-03-06T10:47:52.910Z,100125.81
2019-03-06T10:50:28.938Z,100131.50
2019-03-06T10:53:04.511Z,100115.23
2019-03-06T10:55:39.405Z,100116.57
2019-03-06T10:58:14.366Z,100116.30
2019-03-06T11:00:58.109Z,100106.66
2019-03-06T11:03:43.308Z,100110.09
2019-03-06T11:06:18.674Z,100107.52
2019-03-06T11:08:53.828Z,100103.89
2019-03-06T11:11:29.034Z,100099.45
2019-03-06T11:14:06.411Z,100088.19
2019-03-06T11:16:41.565Z,100082.66
2019-03-06T11:19:17.119Z,100079.01
2019-03-06T11:21:52.236Z,100071.11
2019-03-06T11:24:27.257Z,100063.19
2019-03-06T11:27:02.314Z,100055.05
2019-03-06T11:29:37.267Z,100035.81
2019-03-06T11:32:12.687Z,100033.64
2019-03-06T11:34:47.577Z,100021.78
2019-03-06T11:37:23.084Z,100018.31
2019-03-06T11:39:57.996Z,100008.05
2019-03-06T11:42:33.082Z,99999.17
2019-03-06T11:45:09.667Z,99988.77
2019-03-06T11:47:44.628Z,99974.91
2019-03-06T11:50:20.244Z,99965.41
2019-03-06T11:52:55.438Z,99963.64
2019-03-06T11:55:30.827Z,99967.62
2019-03-06T11:58:08.148Z,99958.27
2019-03-06T12:00:46.360Z,99951.17
2019-03-06T12:03:23.907Z,99944.91
2019-03-06T12:06:01.328Z,99948.80
2019-03-06T12:08:45.635Z,99937.95
2019-03-06T12:11:16.281Z,99936.53
2019-03-06T12:13:51.431Z,99933.75
2019-03-06T12:16:26.633Z,99936.95
2019-03-06T12:19:01.628Z,99928.02
2019-03-06T12:21:36.567Z,99933.78
2019-03-06T12:24:13.121Z,99914.48
2019-03-06T12:26:48.066Z,99918.33
2019-03-06T12:29:23.050Z,99911.98
2019-03-06T12:31:57.949Z,99896.88
2019-03-06T12:34:33.197Z,99898.89
2019-03-06T12:37:07.975Z,99904.13
2019-03-06T12:39:42.874Z,99893.47
2019-03-06T12:42:17.666Z,99881.83
2019-03-06T12:44:53.985Z,99872.89
2019-03-06T12:47:28.867Z,99865.91
2019-03-06T12:50:07.360Z,99872.19
2019-03-06T12:52:43.471Z,99867.16
2019-03-06T12:55:18.362Z,99849.08
2019-03-06T12:57:59.313Z,99842.53
2019-03-06T13:00:29.962Z,99830.08
2019-03-06T13:03:04.931Z,99832.08
2019-03-06T13:05:39.851Z,99829.11
2019-03-06T13:08:19.673Z,99826.44
2019-03-06T13:10:51.365Z,99808.14
2019-03-06T13:13:35.197Z,99802.46
2019-03-06T13:16:02.851Z,99798.02
2019-03-06T13:18:37.758Z,99790.21
2019-03-06T13:21:12.773Z,99770.71
2019-03-06T13:23:47.690Z,99762.59
2019-03-06T13:26:22.785Z,99748.04
2019-03-06T13:28:57.903Z,99752.80
2019-03-06T13:31:33.057Z,99733.38
2019-03-06T13:34:26.917Z,99733.27
2019-03-06T13:37:01.879Z,99731.46
2019-03-06T13:39:36.756Z,99725.91
2019-03-06T13:42:11.672Z,99720.42
2019-03-06T13:44:46.609Z,99709.90
2019-03-06T13:47:22.455Z,99703.69
2019-03-06T13:49:58.339Z,99694.19
2019-03-06T13:52:33.463Z,99688.30
2019-03-06T13:55:09.247Z,99693.16
2019-03-06T13:57:44.657Z,99683.48
2019-03-06T14:00:20.157Z,99684.59
2019-03-06T14:02:55.203Z,99676.24
2019-03-06T14:05:30.286Z,99666.94
2019-03-06T14:08:07.215Z,99657.51
2019-03-06T14:10:42.772Z,99659.94
2019-03-06T14:13:17.678Z,99654.95
2019-03-06T14:15:54.138Z,99651.20
2019-03-06T14:18:29.287Z,99654.17
2019-03-06T14:21:04.251Z,99656.44
2019-03-06T14:23:40.259Z,99642.85
2019-03-06T14:26:15.185Z,99640.06
2019-03-06T14:28:50.172Z,99645.41
2019-03-06T14:31:25.173Z,99639.19
2019-03-06T14:34:00.161Z,99640.02
2019-03-06T14:36:36.689Z,99637.72
2019-03-06T14:39:29.924Z,99636.76
2019-03-06T14:42:05.193Z,99631.52
2019-03-06T14:44:39.971Z,99636.95
2019-03-06T14:47:16.705Z,99636.36
2019-03-06T14:49:51.611Z,99634.65
2019-03-06T14:52:26.501Z,99636.23
2019-03-06T14:55:01.502Z,99631.45
2019-03-06T14:57:36.427Z,99638.71
2019-03-06T15:00:14.279Z,99638.33
2019-03-06T15:02:49.279Z,99641.70
2019-03-06T15:05:24.361Z,99645.26
2019-03-06T15:07:59.539Z,99641.92
2019-03-06T15:10:43.059Z,99636.44
2019-03-06T15:13:13.737Z,99641.69
2019-03-06T15:15:48.712Z,99642.47
2019-03-06T15:18:23.729Z,99650.47
2019-03-06T15:20:58.737Z,99642.99
2019-03-06T15:23:33.799Z,99645.55
2019-03-06T15:26:09.977Z,99645.45
2019-03-06T15:28:48.110Z,99641.53
2019-03-06T15:31:24.117Z,99647.14
2019-03-06T15:33:58.995Z,99647.99
2019-03-06T15:36:34.281Z,99640.77
2019-03-06T15:39:45.657Z,99637.67
2019-03-06T15:42:16.810Z,99631.64
2019-03-06T15:44:55.813Z,99630.13
2019-03-06T15:47:33.712Z,99630.67
2019-03-06T15:50:09.944Z,99633.00
2019-03-06T15:52:44.931Z,99625.45
2019-03-06T15:55:22.413Z,99623.88
2019-03-06T15:57:57.529Z,99618.15
2019-03-06T16:00:34.447Z,99623.97
2019-03-06T16:03:09.974Z,99625.34
2019-03-06T16:05:45.171Z,99623.77
2019-03-06T16:08:20.072Z,99626.42
2019-03-06T16:10:55.217Z,99624.60
2019-03-06T16:13:30.183Z,99621.17
2019-03-06T16:16:06.073Z,99621.77
2019-03-06T16:18:41.023Z,99622.27
2019-03-06T16:21:16.313Z,99614.70
2019-03-06T16:23:51.432Z,99616.81
2019-03-06T16:26:26.458Z,99613.69
2019-03-06T16:29:01.342Z,99611.33
2019-03-06T16:31:36.285Z,99598.98
2019-03-06T16:34:11.181Z,99602.41
2019-03-06T16:36:46.161Z,99600.56
2019-03-06T16:39:21.318Z,99592.19
2019-03-06T16:41:56.347Z,99589.56
2019-03-06T16:44:31.392Z,99591.67
2019-03-06T16:47:07.083Z,99585.14
2019-03-06T16:49:43.203Z,99575.66
2019-03-06T16:52:18.208Z,99575.93
2019-03-06T16:54:53.082Z,99570.14
2019-03-06T16:57:28.005Z,99565.70
2019-03-06T17:00:04.778Z,99562.55
2019-03-06T17:02:40.142Z,99554.94
2019-03-06T17:05:19.124Z,99551.33
2019-03-06T17:07:54.868Z,99546.86
2019-03-06T17:10:30.121Z,99542.69
2019-03-06T17:13:05.556Z,99547.94
2019-03-06T17:15:40.880Z,99545.31
2019-03-06T17:18:21.746Z,99549.25
2019-03-06T17:20:56.699Z,99548.73
2019-03-06T17:23:31.930Z,99552.70
2019-03-06T17:26:06.962Z,99553.00
2019-03-06T17:28:42.055Z,99560.09
2019-03-06T17:31:17.011Z,99543.81
2019-03-06T17:33:51.989Z,99556.42
2019-03-06T17:36:26.984Z,99548.55
2019-03-06T17:39:05.280Z,99556.95
2019-03-06T17:41:40.768Z,99546.98
2019-03-06T17:44:15.689Z,99547.52
2019-03-06T17:46:50.631Z,99549.84
2019-03-06T17:49:25.536Z,99544.56
2019-03-06T17:52:07.416Z,99548.26
2019-03-06T17:54:47.909Z,99549.78
2019-03-06T17:57:22.764Z,99542.92
2019-03-06T17:59:57.649Z,99540.03
2019-03-06T18:02:33.718Z,99545.02
2019-03-06T18:05:09.286Z,99540.78
2019-03-06T18:07:44.407Z,99532.06
2019-03-06T18:10:20.450Z,99521.91
2019-03-06T18:12:55.346Z,99521.91
2019-03-06T18:15:30.866Z,99530.85
2019-03-06T18:18:06.293Z,99516.42
2019-03-06T18:20:42.107Z,99513.77
2019-03-06T18:23:17.237Z,99515.81
2019-03-06T18:25:52.545Z,99512.11
2019-03-06T18:28:27.574Z,99509.19
2019-03-06T18:31:02.590Z,99505.72
2019-03-06T18:33:37.501Z,99504.13
2019-03-06T18:36:12.985Z,99503.36
2019-03-06T18:38:52.772Z,99490.73
2019-03-06T18:41:27.726Z,99490.50
2019-03-06T18:44:02.677Z,99488.39
2019-03-06T18:46:37.941Z,99479.77
2019-03-06T18:49:12.894Z,99482.41
2019-03-06T18:51:53.778Z,99471.86
2019-03-06T18:54:30.173Z,99473.68
2019-03-06T18:57:14.228Z,99473.13
2019-03-06T18:59:52.008Z,99473.63
2019-03-06T19:02:26.881Z,99472.55
2019-03-06T19:05:01.741Z,99471.73
2019-03-06T19:07:36.762Z,99462.78
2019-03-06T19:10:14.174Z,99462.96
2019-03-06T19:12:50.450Z,99458.80
2019-03-06T19:15:25.394Z,99454.68
2019-03-06T19:18:00.279Z,99459.73
2019-03-06T19:20:35.312Z,99466.07
2019-03-06T19:23:10.389Z,99457.74
2019-03-06T19:25:46.372Z,99457.01
2019-03-06T19:28:21.336Z,99460.75
2019-03-06T19:30:56.277Z,99451.98
2019-03-06T19:33:31.324Z,99457.23
2019-03-06T19:36:06.210Z,99447.73
2019-03-06T19:38:41.095Z,99451.95
2019-03-06T19:41:16.021Z,99445.07
2019-03-06T19:43:50.910Z,99436.42
2019-03-06T19:46:25.860Z,99439.83
2019-03-06T19:49:00.727Z,99434.48
2019-03-06T19:51:35.711Z,99431.36
2019-03-06T19:54:11.295Z,99430.50
2019-03-06T19:56:46.197Z,99425.97
2019-03-06T19:59:21.594Z,99424.61
2019-03-06T20:01:56.471Z,99425.39
2019-03-06T20:04:31.342Z,99416.95
2019-03-06T20:07:06.509Z,99420.84
2019-03-06T20:09:41.495Z,99413.67
2019-03-06T20:12:16.573Z,99412.06
2019-03-06T20:14:51.477Z,99412.28
2019-03-06T20:17:26.372Z,99410.69
2019-03-06T20:20:01.251Z,99405.10
2019-03-06T20:22:36.299Z,99411.99
2019-03-06T20:25:11.609Z,99400.19
2019-03-06T20:27:46.624Z,99403.57
2019-03-06T20:30:22.348Z,99402.48
2019-03-06T20:32:57.607Z,99402.25
2019-03-06T20:35:33.036Z,99395.91
2019-03-06T20:38:08.050Z,99398.52
2019-03-06T20:40:42.974Z,99396.34
2019-03-06T20:43:17.986Z,99395.31
2019-03-06T20:45:52.907Z,99396.33
2019-03-06T20:48:30.453Z,99389.33
2019-03-06T20:51:08.358Z,99392.56
2019-03-06T20:53:45.004Z,99386.93
2019-03-06T20:56:19.910Z,99387.42
2019-03-06T20:58:54.889Z,99395.25
2019-03-06T21:01:29.681Z,99383.69
2019-03-06T21:04:07.270Z,99383.10
2019-03-06T21:06:43.406Z,99381.62
2019-03-06T21:09:18.322Z,99378.66
2019-03-06T21:11:54.254Z,99379.16
2019-03-06T21:14:29.552Z,99380.95
2019-03-06T21:17:06.885Z,99377.06
2019-03-06T21:19:44.725Z,99381.30
2019-03-06T21:22:20.108Z,99381.89
2019-03-06T21:24:55.199Z,99378.49
2019-03-06T21:27:30.136Z,99370.84
2019-03-06T21:30:05.939Z,99365.79
2019-03-06T21:32:42.262Z,99368.63
2019-03-06T21:35:18.738Z,99375.65
2019-03-06T21:37:53.685Z,99372.25
2019-03-06T21:40:28.609Z,99377.70
2019-03-06T21:43:03.480Z,99369.23
2019-03-06T21:45:38.399Z,99374.94
2019-03-06T21:48:30.862Z,99365.14
2019-03-06T21:51:05.801Z,99371.15
2019-03-06T21:53:40.671Z,99367.47
2019-03-06T21:56:15.714Z,99366.88
2019-03-06T21:58:50.640Z,99364.58
2019-03-06T22:01:25.646Z,99360.48
2019-03-06T22:04:00.488Z,99370.50
2019-03-06T22:06:35.423Z,99360.31
2019-03-06T22:09:14.912Z,99362.34
2019-03-06T22:11:49.821Z,99355.91
2019-03-06T22:14:25.650Z,99352.39
2019-03-06T22:17:00.576Z,99359.25
2019-03-06T22:19:35.592Z,99352.05
2019-03-06T22:22:10.392Z,99349.98
2019-03-06T22:24:45.168Z,99346.30
2019-03-06T22:27:21.103Z,99342.56
2019-03-06T22:29:56.394Z,99344.11
2019-03-06T22:32:31.344Z,99341.19
2019-03-06T22:35:06.845Z,99339.13
2019-03-06T22:37:41.701Z,99339.38
2019-03-06T22:40:16.888Z,99330.39
2019-03-06T22:42:51.798Z,99330.30
2019-03-06T22:45:27.139Z,99330.20
2019-03-06T22:48:04.759Z,99324.27
2019-03-06T22:50:40.849Z,99321.86
2019-03-06T22:53:15.914Z,99325.84
2019-03-06T22:59:49.460Z,99323.38
2019-03-06T23:02:25.695Z,99324.27
2019-03-06T23:13:38.810Z,99320.89
2019-03-06T23:16:13.710Z,99309.58
2019-03-06T23:18:48.612Z,99305.56
2019-03-06T23:21:23.496Z,99302.00
2019-03-06T23:23:58.674Z,99292.48
2019-03-06T23:26:42.449Z,99294.38
2019-03-06T23:29:10.222Z,99287.38
2019-03-06T23:31:46.509Z,99293.91
2019-03-06T23:34:21.440Z,99285.41
2019-03-06T23:36:56.248Z,99284.05
2019-03-06T23:39:31.301Z,99280.36
2019-03-06T23:42:09.768Z,99280.52
2019-03-06T23:44:44.562Z,99275.91
2019-03-06T23:47:19.456Z,99277.02
2019-03-06T23:49:57.456Z,99276.41
2019-03-06T23:52:51.262Z,99269.31
2019-03-06T23:55:27.718Z,99271.55
2019-03-06T23:58:04.764Z,99263.89
